Time;durP1;ratioP1;P1;durP2;ratioP2;P2;SDS_P1;SDS_P2;PMS_P1;PMS_P2;Temp;Humidity;BMP_temperature;BMP_pressure;BME280_temperature;BME280_humidity;BME280_pressure;Samples;Min_cycle;Max_cycle;Signal;HPM_P1;HPM_P2
2023/07/09 00:00:47;;;;;;;5.47;3.63;;;24.20;99.90;;;;;;5070778;28;20272;-69
2023/07/09 00:03:14;;;;;;;5.55;3.70;;;24.20;99.90;;;;;;5071053;28;20689;-91
2023/07/09 00:05:41;;;;;;;4.53;3.83;;;24.20;99.90;;;;;;5071191;28;20241;-74
2023/07/09 00:08:23;;;;;;;4.15;3.50;;;24.20;99.90;;;;;;5071382;28;20248;-70
2023/07/09 00:10:50;;;;;;;6.55;3.95;;;24.20;99.90;;;;;;5070996;28;20632;-70
2023/07/09 00:13:18;;;;;;;6.20;4.15;;;24.20;99.90;;;;;;5070469;28;20685;-70
2023/07/09 00:15:45;;;;;;;5.20;3.35;;;24.20;99.90;;;;;;5070649;28;20563;-89
2023/07/09 00:18:12;;;;;;;3.35;3.08;;;24.20;99.90;;;;;;5070052;28;20241;-71
2023/07/09 00:20:41;;;;;;;7.32;3.58;;;24.10;99.90;;;;;;5070824;28;20268;-74
2023/07/09 00:23:08;;;;;;;3.55;3.25;;;24.10;99.90;;;;;;5057129;28;20198;-93
2023/07/09 00:25:36;;;;;;;3.88;3.20;;;24.00;99.90;;;;;;5070503;28;20218;-92
2023/07/09 00:28:03;;;;;;;6.35;3.53;;;24.10;99.90;;;;;;5070542;28;20666;-70
2023/07/09 00:30:31;;;;;;;5.88;3.80;;;24.20;99.90;;;;;;5070679;28;20217;-77
2023/07/09 00:32:58;;;;;;;5.53;3.70;;;24.10;99.90;;;;;;5074248;28;20244;-71
2023/07/09 00:35:25;;;;;;;4.03;3.40;;;24.10;99.90;;;;;;5074970;28;20241;-83
2023/07/09 00:37:52;;;;;;;4.35;3.53;;;24.10;99.90;;;;;;5074369;28;20242;-70
2023/07/09 00:40:22;;;;;;;4.95;3.90;;;24.10;99.90;;;;;;5074978;28;20694;-70
2023/07/09 00:42:51;;;;;;;4.07;3.33;;;24.00;99.90;;;;;;5074988;28;20205;-88
2023/07/09 00:45:21;;;;;;;5.57;3.17;;;24.00;99.90;;;;;;5074462;28;20234;-70
2023/07/09 00:47:59;;;;;;;8.45;3.58;;;24.10;99.90;;;;;;5075071;28;20646;-91
2023/07/09 00:50:47;;;;;;;4.65;3.05;;;24.00;99.90;;;;;;5061917;28;20237;-90
2023/07/09 00:53:19;;;;;;;5.35;3.78;;;24.00;99.90;;;;;;5072472;28;20233;-71
2023/07/09 00:55:51;;;;;;;6.25;4.00;;;24.00;99.90;;;;;;5075264;28;20207;-73
2023/07/09 00:58:19;;;;;;;6.65;3.65;;;23.90;99.90;;;;;;5074865;28;20238;-70
2023/07/09 01:00:52;;;;;;;3.35;3.05;;;23.90;99.90;;;;;;5074585;28;20268;-70
2023/07/09 01:03:27;;;;;;;5.80;4.70;;;23.80;99.90;;;;;;5074223;28;20256;-70
2023/07/09 01:05:55;;;;;;;5.68;3.42;;;23.70;99.90;;;;;;5074666;28;20292;-83
2023/07/09 01:08:22;;;;;;;4.93;3.97;;;23.70;99.90;;;;;;5072315;28;20291;-90
2023/07/09 01:10:49;;;;;;;4.00;3.17;;;23.70;99.90;;;;;;5074252;28;20237;-92
2023/07/09 01:13:18;;;;;;;4.55;3.83;;;23.70;99.90;;;;;;5073265;28;20206;-71
2023/07/09 01:15:46;;;;;;;5.45;3.72;;;23.80;99.90;;;;;;5072775;28;20202;-70
2023/07/09 01:18:14;;;;;;;10.60;4.93;;;23.80;99.90;;;;;;5072792;28;20202;-69
2023/07/09 01:20:43;;;;;;;4.85;3.95;;;23.80;99.90;;;;;;5073209;28;20236;-91
2023/07/09 01:23:11;;;;;;;3.50;3.20;;;23.70;99.90;;;;;;5055112;28;20230;-78
2023/07/09 01:25:44;;;;;;;5.47;4.00;;;23.70;99.90;;;;;;5066142;28;20256;-71
2023/07/09 01:28:11;;;;;;;4.78;3.70;;;23.70;99.90;;;;;;5073724;28;20241;-79
2023/07/09 01:30:41;;;;;;;7.25;3.38;;;23.70;99.90;;;;;;5073505;28;20210;-70
2023/07/09 01:33:09;;;;;;;7.53;4.10;;;23.70;99.90;;;;;;5073253;28;20631;-70
2023/07/09 01:35:40;;;;;;;5.47;3.88;;;23.60;99.90;;;;;;5073568;28;20259;-70
2023/07/09 01:38:08;;;;;;;5.85;3.78;;;23.60;99.90;;;;;;5073850;28;20206;-70
2023/07/09 01:40:38;;;;;;;6.00;4.00;;;23.60;99.90;;;;;;5073138;28;20603;-92
2023/07/09 01:43:07;;;;;;;6.82;3.75;;;23.60;99.90;;;;;;5072503;28;20237;-70
2023/07/09 01:45:34;;;;;;;4.97;4.25;;;23.50;99.90;;;;;;5072357;28;20210;-69
2023/07/09 01:48:02;;;;;;;10.23;4.35;;;23.50;99.90;;;;;;5073251;28;20678;-80
2023/07/09 01:50:29;;;;;;;5.53;4.47;;;23.50;99.90;;;;;;5072886;28;20252;-70
2023/07/09 01:52:57;;;;;;;5.07;4.22;;;23.60;99.90;;;;;;5073343;28;20202;-91
2023/07/09 01:55:24;;;;;;;5.82;4.25;;;23.50;99.90;;;;;;5063071;28;20619;-91
2023/07/09 01:57:52;;;;;;;4.85;3.45;;;23.60;99.90;;;;;;5071831;28;20205;-72
2023/07/09 02:00:20;;;;;;;4.32;3.90;;;23.60;99.90;;;;;;5061664;28;20266;-77
2023/07/09 02:02:47;;;;;;;5.15;4.07;;;23.60;99.90;;;;;;5070958;28;20240;-70
2023/07/09 02:05:17;;;;;;;7.30;4.20;;;23.60;99.90;;;;;;5058594;28;20699;-70
2023/07/09 02:07:44;;;;;;;8.05;3.88;;;23.60;99.90;;;;;;5072457;28;20285;-71
2023/07/09 02:10:12;;;;;;;4.88;3.92;;;23.60;99.90;;;;;;5068710;28;20249;-70
2023/07/09 02:12:39;;;;;;;6.57;5.30;;;23.60;99.90;;;;;;5052634;28;20234;-89
2023/07/09 02:15:09;;;;;;;5.00;3.53;;;23.60;99.90;;;;;;5071979;28;20237;-71
2023/07/09 02:17:36;;;;;;;3.97;3.33;;;23.50;99.90;;;;;;5072681;28;20245;-70
2023/07/09 02:20:05;;;;;;;5.45;4.35;;;23.40;99.90;;;;;;5072232;28;20265;-70
2023/07/09 02:22:32;;;;;;;6.28;3.75;;;23.30;99.90;;;;;;5072195;28;20321;-91
2023/07/09 02:24:59;;;;;;;6.22;3.88;;;23.30;99.90;;;;;;5072810;28;20237;-70
2023/07/09 02:27:26;;;;;;;5.07;4.50;;;23.20;99.90;;;;;;5070728;28;20238;-90
2023/07/09 02:29:54;;;;;;;6.18;4.63;;;23.20;99.90;;;;;;5069661;28;20323;-70
2023/07/09 02:32:25;;;;;;;4.60;3.80;;;23.20;99.90;;;;;;5071731;28;20651;-80
2023/07/09 02:34:53;;;;;;;4.18;3.78;;;23.20;99.90;;;;;;5072531;28;20210;-89
2023/07/09 02:37:22;;;;;;;9.05;4.95;;;23.20;99.90;;;;;;5072767;28;20205;-70
2023/07/09 02:39:49;;;;;;;4.95;4.30;;;23.20;99.90;;;;;;5071762;28;20240;-91
2023/07/09 02:42:18;;;;;;;4.90;4.40;;;23.20;99.90;;;;;;5072983;28;20312;-91
2023/07/09 02:44:46;;;;;;;4.38;3.97;;;23.20;99.90;;;;;;5071879;28;20230;-85
2023/07/09 02:47:14;;;;;;;4.63;3.78;;;23.20;99.90;;;;;;5070139;28;20692;-71
2023/07/09 02:49:42;;;;;;;7.15;5.10;;;23.20;99.90;;;;;;5071145;28;20332;-70
2023/07/09 02:52:09;;;;;;;4.75;4.32;;;23.00;99.90;;;;;;5071981;28;20238;-70
2023/07/09 02:54:36;;;;;;;6.30;4.30;;;23.00;99.90;;;;;;5071570;28;20249;-87
2023/07/09 02:57:04;;;;;;;6.38;4.00;;;23.10;99.90;;;;;;5072259;28;20226;-71
2023/07/09 02:59:31;;;;;;;8.77;4.43;;;23.10;99.90;;;;;;5071032;28;20245;-70
2023/07/09 03:01:58;;;;;;;5.03;3.90;;;23.00;99.90;;;;;;5064305;28;20266;-88
2023/07/09 03:04:25;;;;;;;4.82;4.28;;;22.90;99.90;;;;;;5058402;28;20238;-74
2023/07/09 03:06:53;;;;;;;4.60;3.95;;;23.00;99.90;;;;;;5070642;28;20235;-73
2023/07/09 03:09:21;;;;;;;6.63;3.95;;;22.90;99.90;;;;;;5069225;28;20237;-70
2023/07/09 03:11:48;;;;;;;7.65;4.72;;;23.00;99.90;;;;;;5068668;28;20282;-87
2023/07/09 03:14:16;;;;;;;5.90;4.65;;;23.10;99.90;;;;;;5071081;28;20206;-89
2023/07/09 03:16:43;;;;;;;6.68;4.28;;;23.00;99.90;;;;;;5084806;28;20862;-70
2023/07/09 03:19:10;;;;;;;5.15;4.65;;;22.90;99.90;;;;;;5071583;28;20242;-69
2023/07/09 03:21:37;;;;;;;4.22;3.75;;;22.90;99.90;;;;;;5070980;28;20273;-70
2023/07/09 03:24:07;;;;;;;7.75;4.30;;;23.00;99.90;;;;;;5071705;28;20255;-71
2023/07/09 03:26:34;;;;;;;6.57;3.83;;;23.10;99.90;;;;;;5071241;28;20212;-71
2023/07/09 03:29:01;;;;;;;10.23;6.97;;;23.10;99.90;;;;;;5071151;28;20280;-92
2023/07/09 03:31:28;;;;;;;8.05;5.78;;;23.10;99.90;;;;;;5070542;28;20241;-80
2023/07/09 03:33:54;;;;;;;10.82;5.75;;;23.10;99.90;;;;;;5069200;28;20657;-79
2023/07/09 03:36:21;;;;;;;6.85;4.38;;;23.10;99.90;;;;;;5071432;28;20237;-70
2023/07/09 03:38:48;;;;;;;5.80;4.35;;;22.90;99.90;;;;;;5070769;28;20245;-70
2023/07/09 03:41:17;;;;;;;5.60;4.93;;;22.80;99.90;;;;;;5066890;28;20295;-71
2023/07/09 03:43:44;;;;;;;5.13;4.10;;;22.80;99.90;;;;;;5070939;28;20249;-74
2023/07/09 03:46:12;;;;;;;4.53;3.65;;;22.70;99.90;;;;;;5071312;28;20205;-91
2023/07/09 03:48:39;;;;;;;6.70;4.85;;;22.70;99.90;;;;;;5071146;28;20673;-70
2023/07/09 03:51:06;;;;;;;5.25;4.72;;;22.70;99.90;;;;;;5070931;28;20216;-70
2023/07/09 03:53:33;;;;;;;6.25;4.25;;;22.70;99.90;;;;;;5070622;28;20238;-90
2023/07/09 03:56:00;;;;;;;5.75;4.13;;;22.80;99.90;;;;;;5070728;28;20238;-91
2023/07/09 03:58:28;;;;;;;4.60;3.90;;;22.70;99.90;;;;;;5070194;28;20206;-70
2023/07/09 04:00:55;;;;;;;6.05;3.88;;;22.80;99.90;;;;;;5070169;28;20713;-70
2023/07/09 04:03:23;;;;;;;4.82;3.90;;;22.80;99.90;;;;;;5066818;28;20675;-83
2023/07/09 04:05:50;;;;;;;9.13;4.35;;;22.80;99.90;;;;;;5060988;28;20244;-70
2023/07/09 04:08:17;;;;;;;4.47;3.92;;;22.80;99.90;;;;;;5070229;28;20248;-86
2023/07/09 04:10:44;;;;;;;9.48;4.70;;;22.80;99.90;;;;;;5069687;28;20253;-72
2023/07/09 04:13:11;;;;;;;7.30;4.07;;;22.70;99.90;;;;;;5069661;28;20237;-70
2023/07/09 04:15:39;;;;;;;6.72;4.70;;;22.80;99.90;;;;;;5070050;28;20242;-71
2023/07/09 04:18:07;;;;;;;9.68;4.57;;;22.80;99.90;;;;;;5070113;28;20241;-70
2023/07/09 04:20:35;;;;;;;7.28;4.97;;;22.70;99.90;;;;;;5069852;28;20317;-71
2023/07/09 04:23:02;;;;;;;6.80;4.05;;;22.80;99.90;;;;;;5070759;28;20206;-70
2023/07/09 04:25:29;;;;;;;9.00;5.68;;;22.70;99.90;;;;;;5068832;28;20568;-70
2023/07/09 04:27:56;;;;;;;6.57;4.90;;;22.80;99.90;;;;;;5070487;28;20234;-71
2023/07/09 04:30:24;;;;;;;8.25;5.57;;;22.80;99.90;;;;;;5070026;28;20238;-70
2023/07/09 04:32:52;;;;;;;6.88;4.47;;;22.80;99.90;;;;;;5070823;28;20221;-82
2023/07/09 04:35:19;;;;;;;8.38;5.15;;;22.90;99.90;;;;;;5070916;28;20230;-92
2023/07/09 04:37:46;;;;;;;7.95;4.80;;;22.90;99.90;;;;;;5070450;28;20234;-71
2023/07/09 04:40:13;;;;;;;5.68;4.72;;;22.90;99.90;;;;;;5068906;28;20229;-94
2023/07/09 04:42:41;;;;;;;6.93;4.90;;;23.00;99.90;;;;;;5070181;28;20614;-70
2023/07/09 04:45:10;;;;;;;7.22;5.03;;;23.00;99.90;;;;;;5070326;28;20237;-92
2023/07/09 04:47:37;;;;;;;5.65;5.03;;;23.00;99.90;;;;;;5052206;28;20241;-70
2023/07/09 04:50:07;;;;;;;6.35;4.38;;;22.90;99.90;;;;;;5061162;28;20242;-84
2023/07/09 04:52:34;;;;;;;6.63;4.75;;;23.00;99.90;;;;;;5060302;28;20206;-73
2023/07/09 04:55:01;;;;;;;9.13;5.00;;;23.00;99.90;;;;;;5061561;28;20244;-82
2023/07/09 04:57:29;;;;;;;7.10;4.78;;;23.00;99.90;;;;;;5054279;28;20207;-70
2023/07/09 04:59:56;;;;;;;7.50;4.90;;;23.00;99.90;;;;;;5064387;28;20226;-69
2023/07/09 05:02:23;;;;;;;5.72;5.22;;;23.00;99.90;;;;;;5060056;28;20620;-76
2023/07/09 05:04:50;;;;;;;6.10;5.28;;;22.90;99.90;;;;;;5057710;28;20206;-70
2023/07/09 05:07:18;;;;;;;6.03;5.20;;;23.00;99.90;;;;;;5061698;28;20211;-76
2023/07/09 05:09:45;;;;;;;9.77;5.45;;;23.00;99.90;;;;;;5055980;28;20238;-76
2023/07/09 05:12:12;;;;;;;5.13;4.55;;;23.00;99.90;;;;;;5049745;28;20246;-78
2023/07/09 05:14:40;;;;;;;7.45;4.57;;;23.00;99.90;;;;;;5054558;28;20245;-74
2023/07/09 05:17:07;;;;;;;5.53;5.03;;;23.10;99.90;;;;;;5065036;28;20279;-73
2023/07/09 05:19:34;;;;;;;7.32;4.03;;;23.20;99.90;;;;;;5063132;28;20233;-78
2023/07/09 05:22:01;;;;;;;5.50;4.75;;;23.30;99.90;;;;;;5062909;28;20258;-75
2023/07/09 05:24:30;;;;;;;6.75;4.10;;;23.20;99.90;;;;;;5055333;28;20626;-75
2023/07/09 05:26:57;;;;;;;5.68;4.93;;;23.20;99.90;;;;;;5060658;28;20211;-78
2023/07/09 05:29:25;;;;;;;7.88;4.70;;;23.30;99.90;;;;;;5058032;28;20244;-77
2023/07/09 05:31:52;;;;;;;7.90;4.22;;;23.30;99.90;;;;;;5058111;28;20622;-77
2023/07/09 05:34:19;;;;;;;5.57;4.65;;;23.40;99.90;;;;;;5059656;28;20260;-78
2023/07/09 05:36:46;;;;;;;4.65;4.25;;;23.40;99.90;;;;;;5060002;28;20237;-74
2023/07/09 05:39:13;;;;;;;6.15;4.13;;;23.40;99.90;;;;;;5065155;28;20682;-75
2023/07/09 05:41:41;;;;;;;5.78;4.65;;;23.40;99.90;;;;;;5060066;28;20273;-77
2023/07/09 05:44:09;;;;;;;10.13;4.65;;;23.40;99.90;;;;;;5067343;28;20231;-77
2023/07/09 05:46:37;;;;;;;5.82;4.75;;;23.40;99.90;;;;;;5062507;28;20218;-78
2023/07/09 05:49:05;;;;;;;5.53;3.92;;;23.40;99.90;;;;;;5064036;28;20228;-78
2023/07/09 05:51:32;;;;;;;8.38;4.57;;;23.40;99.90;;;;;;5072535;28;20237;-74
2023/07/09 05:53:58;;;;;;;6.05;4.47;;;23.40;99.90;;;;;;5056606;28;20296;-77
2023/07/09 05:56:25;;;;;;;5.13;4.13;;;23.50;99.90;;;;;;5059276;28;20233;-79
2023/07/09 05:58:54;;;;;;;9.93;4.30;;;23.60;99.90;;;;;;5056069;28;20242;-77
2023/07/09 06:01:21;;;;;;;5.40;4.90;;;23.70;99.90;;;;;;5064093;28;20232;-73
2023/07/09 06:03:48;;;;;;;4.28;3.88;;;23.80;99.90;;;;;;5057497;28;20626;-73
2023/07/09 06:06:16;;;;;;;6.53;4.13;;;23.90;99.90;;;;;;5066677;28;20214;-77
2023/07/09 06:08:43;;;;;;;4.88;4.05;;;23.90;99.90;;;;;;5070338;28;20268;-73
2023/07/09 06:11:10;;;;;;;5.47;4.32;;;23.90;99.90;;;;;;5070485;28;21085;-73
2023/07/09 06:13:37;;;;;;;6.38;4.50;;;23.90;99.90;;;;;;5065423;28;20245;-79
2023/07/09 06:16:06;;;;;;;8.43;5.10;;;24.00;99.90;;;;;;5051972;28;20298;-80
2023/07/09 06:18:33;;;;;;;7.45;4.57;;;24.00;99.90;;;;;;5051442;28;20253;-73
2023/07/09 06:21:02;;;;;;;5.32;4.78;;;24.10;99.90;;;;;;5052024;28;20253;-73
2023/07/09 06:23:30;;;;;;;7.35;5.20;;;24.20;99.90;;;;;;5064322;28;20202;-73
2023/07/09 06:25:57;;;;;;;10.68;6.57;;;24.30;99.90;;;;;;5053412;28;20290;-72
2023/07/09 06:28:28;;;;;;;9.35;6.75;;;24.40;99.90;;;;;;5062344;28;20690;-73
2023/07/09 06:30:55;;;;;;;9.20;6.57;;;24.40;99.90;;;;;;5055155;28;20244;-73
2023/07/09 06:33:25;;;;;;;7.38;6.63;;;24.50;99.90;;;;;;5056221;28;20246;-81
2023/07/09 06:35:54;;;;;;;7.20;6.53;;;24.60;99.90;;;;;;5051686;28;20352;-77
2023/07/09 06:38:21;;;;;;;7.88;7.07;;;24.70;99.90;;;;;;5052388;28;20238;-73
2023/07/09 06:40:48;;;;;;;11.73;8.07;;;24.80;99.90;;;;;;5061881;28;20203;-80
2023/07/09 06:43:15;;;;;;;7.63;6.97;;;24.80;99.90;;;;;;5051705;28;20234;-79
2023/07/09 06:45:49;;;;;;;9.13;8.25;;;24.90;99.90;;;;;;5051440;28;20231;-79
2023/07/09 06:48:16;;;;;;;9.68;7.82;;;25.00;99.90;;;;;;5052001;28;20211;-76
2023/07/09 06:50:46;;;;;;;10.30;8.95;;;25.10;99.90;;;;;;5051295;28;20198;-78
2023/07/09 06:53:13;;;;;;;11.82;8.27;;;25.30;99.90;;;;;;5053035;28;20246;-74
2023/07/09 06:55:40;;;;;;;10.00;9.02;;;25.50;99.90;;;;;;5063531;28;20686;-78
2023/07/09 06:58:07;;;;;;;9.38;8.05;;;25.60;99.90;;;;;;5054607;28;20242;-76
2023/07/09 07:00:35;;;;;;;9.77;8.88;;;25.50;99.90;;;;;;5063417;28;20210;-73
2023/07/09 07:03:02;;;;;;;10.35;9.25;;;25.50;99.90;;;;;;5055792;28;20230;-79
2023/07/09 07:05:29;;;;;;;10.15;9.15;;;25.50;99.90;;;;;;5058201;28;20700;-78
2023/07/09 07:07:57;;;;;;;11.18;9.57;;;25.50;99.90;;;;;;5069933;28;20244;-73
2023/07/09 07:10:26;;;;;;;10.45;9.35;;;25.60;99.90;;;;;;5069865;28;20234;-76
2023/07/09 07:12:54;;;;;;;11.93;10.65;;;25.70;99.90;;;;;;5059238;28;20264;-76
2023/07/09 07:15:21;;;;;;;11.05;9.90;;;25.90;99.90;;;;;;5052465;28;20674;-73
2023/07/09 07:17:48;;;;;;;13.48;10.90;;;26.10;99.90;;;;;;5055950;28;20293;-73
2023/07/09 07:20:17;;;;;;;12.90;11.60;;;26.10;99.90;;;;;;5053968;28;20203;-79
2023/07/09 07:22:43;;;;;;;11.80;10.70;;;26.10;99.90;;;;;;5054613;28;20316;-76
2023/07/09 07:25:12;;;;;;;11.40;9.65;;;26.10;99.90;;;;;;5050713;28;20261;-79
2023/07/09 07:27:39;;;;;;;11.52;10.32;;;26.20;99.90;;;;;;5050820;28;20238;-79
2023/07/09 07:30:09;;;;;;;12.38;9.85;;;26.10;99.90;;;;;;5050878;28;20268;-75
2023/07/09 07:32:38;;;;;;;11.32;10.23;;;26.20;99.90;;;;;;5062170;28;20628;-74
2023/07/09 07:35:05;;;;;;;11.35;10.25;;;26.60;99.90;;;;;;5070784;28;20234;-75
2023/07/09 07:37:32;;;;;;;12.82;10.63;;;26.70;99.90;;;;;;5070365;28;20241;-76
2023/07/09 07:39:59;;;;;;;12.27;11.05;;;26.60;99.90;;;;;;5070499;28;20674;-81
2023/07/09 07:42:27;;;;;;;11.32;10.32;;;26.60;99.90;;;;;;5069583;28;20284;-73
2023/07/09 07:44:54;;;;;;;11.30;10.30;;;26.80;99.90;;;;;;5070752;28;20243;-80
2023/07/09 07:47:21;;;;;;;14.05;11.93;;;26.90;99.90;;;;;;5070631;28;20245;-79
2023/07/09 07:49:48;;;;;;;10.45;9.45;;;26.60;99.90;;;;;;5058665;28;20624;-74
2023/07/09 07:52:15;;;;;;;12.30;10.80;;;26.40;99.90;;;;;;5063827;28;20624;-74
2023/07/09 07:54:42;;;;;;;12.00;10.88;;;26.50;99.90;;;;;;5055911;28;20303;-83
2023/07/09 07:57:10;;;;;;;11.15;9.07;;;26.60;99.90;;;;;;5062490;28;20202;-82
2023/07/09 07:59:39;;;;;;;13.35;12.10;;;26.70;99.90;;;;;;5056659;28;20669;-83
2023/07/09 08:02:11;;;;;;;12.68;11.57;;;26.80;99.90;;;;;;5057099;28;20631;-80
2023/07/09 08:04:39;;;;;;;11.38;10.20;;;27.00;99.90;;;;;;5055572;28;20199;-82
2023/07/09 08:07:07;;;;;;;11.00;9.90;;;27.20;99.90;;;;;;5050180;28;20230;-78
2023/07/09 08:09:34;;;;;;;11.85;9.75;;;27.10;99.90;;;;;;5057678;28;20206;-77
2023/07/09 08:12:01;;;;;;;10.18;9.18;;;27.00;99.90;;;;;;5053471;28;20245;-76
2023/07/09 08:14:28;;;;;;;11.07;10.00;;;27.50;99.90;;;;;;5051759;28;20238;-74
2023/07/09 08:16:56;;;;;;;10.75;9.82;;;27.90;99.90;;;;;;5053570;28;20271;-79
2023/07/09 08:19:23;;;;;;;10.23;9.32;;;27.90;99.90;;;;;;5054573;28;20241;-73
2023/07/09 08:21:50;;;;;;;9.65;8.70;;;27.80;99.90;;;;;;5050329;28;20262;-71
2023/07/09 08:24:17;;;;;;;10.10;9.20;;;27.60;99.90;;;;;;5053227;28;20250;-76
2023/07/09 08:26:44;;;;;;;10.07;8.95;;;27.70;99.90;;;;;;5055447;28;20234;-75
2023/07/09 08:29:11;;;;;;;10.82;9.82;;;27.80;99.90;;;;;;5053807;28;20286;-68
2023/07/09 08:31:38;;;;;;;11.65;10.50;;;28.10;99.90;;;;;;5051563;28;20203;-75
2023/07/09 08:34:08;;;;;;;13.18;11.82;;;27.80;99.90;;;;;;5060976;28;20253;-79
2023/07/09 08:36:35;;;;;;;13.63;12.30;;;27.70;99.90;;;;;;5053920;28;20214;-80
2023/07/09 08:39:02;;;;;;;11.48;10.30;;;27.70;99.90;;;;;;5061258;28;20236;-79
2023/07/09 08:41:40;;;;;;;10.93;9.93;;;27.80;99.90;;;;;;5056442;28;20242;-69
2023/07/09 08:44:26;;;;;;;11.90;10.88;;;28.00;99.90;;;;;;5068146;28;20621;-77
2023/07/09 08:47:01;;;;;;;11.75;10.48;;;28.10;99.90;;;;;;5062190;28;20268;-77
2023/07/09 08:49:38;;;;;;;11.43;10.48;;;28.00;99.90;;;;;;5064914;28;20293;-73
2023/07/09 08:52:13;;;;;;;11.30;10.20;;;28.00;99.90;;;;;;5058106;28;20255;-68
2023/07/09 08:54:41;;;;;;;11.73;10.73;;;28.10;99.90;;;;;;5094927;28;20237;-68
2023/07/09 08:57:19;;;;;;;11.77;10.77;;;28.50;99.90;;;;;;5060351;28;20237;-78
2023/07/09 08:59:47;;;;;;;11.40;10.38;;;28.60;99.90;;;;;;5053739;28;20568;-78
2023/07/09 09:02:25;;;;;;;12.60;11.38;;;28.80;99.90;;;;;;5062692;28;20253;-69
2023/07/09 09:04:54;;;;;;;12.40;11.15;;;29.60;99.90;;;;;;5061285;28;20230;-68
2023/07/09 09:07:40;;;;;;;12.30;11.30;;;29.80;99.90;;;;;;5063185;28;20245;-68
2023/07/09 09:10:15;;;;;;;11.98;10.88;;;30.60;99.90;;;;;;5058267;28;20214;-81
2023/07/09 09:12:49;;;;;;;12.68;11.38;;;31.10;99.90;;;;;;5054376;28;20202;-69
2023/07/09 09:15:19;;;;;;;11.88;10.80;;;30.90;99.90;;;;;;5053283;28;20210;-69
2023/07/09 09:17:52;;;;;;;12.07;10.98;;;31.50;99.90;;;;;;5056725;28;20246;-69
2023/07/09 09:20:22;;;;;;;10.95;9.80;;;30.80;99.90;;;;;;5056821;28;21050;-70
2023/07/09 09:22:53;;;;;;;12.20;11.02;;;30.70;99.90;;;;;;5064804;28;20303;-69
2023/07/09 09:25:27;;;;;;;14.93;11.63;;;30.60;99.90;;;;;;5052898;28;20246;-71
2023/07/09 09:27:54;;;;;;;12.55;11.50;;;31.10;99.90;;;;;;5056603;28;20289;-71
2023/07/09 09:30:23;;;;;;;12.48;11.38;;;30.60;99.90;;;;;;5053404;28;20312;-73
2023/07/09 09:32:55;;;;;;;11.65;10.55;;;31.40;99.90;;;;;;5055167;28;20210;-74
2023/07/09 09:35:28;;;;;;;11.70;10.73;;;34.00;99.90;;;;;;5052142;28;20283;-73
2023/07/09 09:37:57;;;;;;;11.23;10.13;;;37.50;99.90;;;;;;5057839;28;20240;-79
2023/07/09 09:40:26;;;;;;;11.57;10.50;;;39.00;99.90;;;;;;5052087;28;20633;-72
2023/07/09 09:42:55;;;;;;;12.80;11.82;;;40.90;99.90;;;;;;5053004;28;20269;-70
2023/07/09 09:45:27;;;;;;;12.35;11.35;;;41.20;99.90;;;;;;5051887;28;20241;-76
2023/07/09 09:47:59;;;;;;;11.05;10.18;;;43.00;99.90;;;;;;5052425;28;20242;-71
2023/07/09 09:50:32;;;;;;;11.27;10.27;;;41.40;99.90;;;;;;5052109;28;20234;-74
2023/07/09 09:53:01;;;;;;;12.35;11.40;;;41.00;99.90;;;;;;5051605;28;20646;-71
2023/07/09 09:55:32;;;;;;;11.02;10.18;;;40.90;99.90;;;;;;5052136;28;20289;-71
2023/07/09 09:58:00;;;;;;;11.23;10.32;;;39.70;99.90;;;;;;5051054;28;20213;-75
2023/07/09 10:00:29;;;;;;;11.07;10.15;;;41.90;99.90;;;;;;5050685;28;20233;-76
2023/07/09 10:03:00;;;;;;;10.30;9.40;;;42.30;99.90;;;;;;5050371;28;20268;-70
2023/07/09 10:05:33;;;;;;;11.07;10.18;;;42.00;99.90;;;;;;5056644;28;20237;-71
2023/07/09 10:08:04;;;;;;;10.90;10.02;;;39.40;99.90;;;;;;5071326;28;20248;-74
2023/07/09 10:10:34;;;;;;;11.38;10.52;;;40.80;99.90;;;;;;5057785;28;20248;-79
2023/07/09 10:13:11;;;;;;;12.07;11.27;;;42.90;99.90;;;;;;5071877;28;20241;-71
2023/07/09 10:15:45;;;;;;;11.05;10.15;;;44.60;99.90;;;;;;5071605;28;20209;-77
2023/07/09 10:18:26;;;;;;;10.68;9.98;;;43.50;99.90;;;;;;5072296;28;20232;-81
2023/07/09 10:21:06;;;;;;;12.80;11.70;;;42.90;99.90;;;;;;5071869;28;20213;-70
2023/07/09 10:23:39;;;;;;;11.80;10.80;;;44.10;99.90;;;;;;5071337;28;20260;-69
2023/07/09 10:26:12;;;;;;;12.30;11.23;;;42.50;99.90;;;;;;5072160;28;20244;-79
2023/07/09 10:29:02;;;;;;;10.48;9.57;;;42.10;99.90;;;;;;5071608;28;20209;-70
2023/07/09 10:31:39;;;;;;;10.80;9.90;;;40.00;99.90;;;;;;5068787;28;20252;-70
2023/07/09 10:34:14;;;;;;;11.18;10.27;;;37.40;99.90;;;;;;5071869;28;20209;-69
2023/07/09 10:36:53;;;;;;;12.10;11.20;;;35.30;99.90;;;;;;5071687;28;20216;-70
2023/07/09 10:39:25;;;;;;;13.18;11.68;;;33.70;99.90;;;;;;5071170;28;20228;-71
2023/07/09 10:41:57;;;;;;;12.95;11.75;;;33.20;99.90;;;;;;5072026;28;20237;-70
2023/07/09 10:44:31;;;;;;;12.27;11.23;;;32.90;99.90;;;;;;5071227;28;20273;-78
2023/07/09 10:47:01;;;;;;;13.60;12.45;;;32.80;99.90;;;;;;5071494;28;20695;-70
2023/07/09 10:49:36;;;;;;;13.48;12.32;;;32.50;99.90;;;;;;5071274;28;20237;-70
2023/07/09 10:52:08;;;;;;;12.18;11.27;;;32.30;99.90;;;;;;5071698;28;20208;-71
2023/07/09 10:54:43;;;;;;;13.18;11.98;;;31.90;99.90;;;;;;5071049;28;20688;-77
2023/07/09 10:57:15;;;;;;;14.45;13.02;;;31.60;99.90;;;;;;5071347;28;20205;-70
2023/07/09 10:59:44;;;;;;;13.48;12.27;;;31.50;99.90;;;;;;5070767;28;20209;-70
2023/07/09 11:02:19;;;;;;;12.98;11.90;;;31.40;99.90;;;;;;5071368;28;20240;-69
2023/07/09 11:04:50;;;;;;;13.07;11.98;;;31.00;99.90;;;;;;5057105;28;20233;-69
2023/07/09 11:07:24;;;;;;;13.60;12.43;;;30.90;99.90;;;;;;5071601;28;20220;-77
2023/07/09 11:09:54;;;;;;;13.10;11.98;;;31.00;99.90;;;;;;5071027;28;20259;-69
2023/07/09 11:12:33;;;;;;;13.50;12.38;;;31.40;99.90;;;;;;5071363;28;20551;-70
2023/07/09 11:15:04;;;;;;;14.57;13.18;;;31.20;99.90;;;;;;5070675;28;20243;-69
2023/07/09 11:17:33;;;;;;;13.18;11.88;;;30.80;99.90;;;;;;5070815;28;20209;-72
2023/07/09 11:20:01;;;;;;;12.00;11.07;;;31.00;99.90;;;;;;5070868;28;20301;-69
2023/07/09 11:22:39;;;;;;;12.43;11.52;;;31.00;99.90;;;;;;5070636;28;20237;-70
2023/07/09 11:25:09;;;;;;;13.90;12.55;;;31.10;99.90;;;;;;5071018;28;20621;-79
2023/07/09 11:27:47;;;;;;;12.55;11.48;;;31.00;99.90;;;;;;5070338;28;20215;-70
2023/07/09 11:30:23;;;;;;;13.32;12.18;;;30.90;99.90;;;;;;5070750;28;20233;-79
2023/07/09 11:32:57;;;;;;;13.07;11.75;;;30.80;99.90;;;;;;5070988;28;20239;-70
2023/07/09 11:35:26;;;;;;;12.82;11.73;;;30.70;99.90;;;;;;5070192;28;20237;-70
2023/07/09 11:37:55;;;;;;;13.45;12.30;;;30.50;99.90;;;;;;5070926;28;20236;-79
2023/07/09 11:40:24;;;;;;;12.63;11.60;;;30.50;99.90;;;;;;5070795;28;20288;-70
2023/07/09 11:42:53;;;;;;;13.93;12.65;;;30.50;99.90;;;;;;5070812;28;20264;-70
2023/07/09 11:45:26;;;;;;;13.88;11.85;;;30.40;99.90;;;;;;5070530;28;20290;-69
2023/07/09 11:48:03;;;;;;;12.75;11.77;;;30.60;99.90;;;;;;5070745;28;20206;-69
2023/07/09 11:50:35;;;;;;;13.45;12.35;;;30.70;99.90;;;;;;5070454;28;20204;-70
2023/07/09 11:53:16;;;;;;;12.90;11.63;;;30.60;99.90;;;;;;5070718;28;20232;-81
2023/07/09 11:55:44;;;;;;;12.60;11.50;;;30.70;99.90;;;;;;5070540;28;20205;-76
2023/07/09 11:58:13;;;;;;;11.93;10.93;;;30.60;99.90;;;;;;5070616;28;20286;-79
2023/07/09 12:00:43;;;;;;;13.85;12.65;;;30.60;99.90;;;;;;5070311;28;20315;-70
2023/07/09 12:03:21;;;;;;;11.13;10.13;;;30.70;99.90;;;;;;5068256;28;20749;-74
2023/07/09 12:05:51;;;;;;;13.05;12.05;;;30.40;99.90;;;;;;5060691;28;20227;-69
2023/07/09 12:08:24;;;;;;;12.57;11.38;;;30.40;99.90;;;;;;5070726;28;20241;-78
2023/07/09 12:10:51;;;;;;;11.50;10.60;;;30.70;99.90;;;;;;5070666;28;20240;-70
2023/07/09 12:13:17;;;;;;;12.57;11.43;;;30.90;99.90;;;;;;5070543;28;20244;-78
2023/07/09 12:15:44;;;;;;;12.40;11.40;;;31.20;99.90;;;;;;5069858;28;20241;-70
2023/07/09 12:18:15;;;;;;;14.18;12.43;;;31.40;99.90;;;;;;5070348;28;20647;-78
2023/07/09 12:20:53;;;;;;;11.35;10.27;;;31.60;99.90;;;;;;5070049;28;20245;-70
2023/07/09 12:23:26;;;;;;;11.20;10.30;;;31.60;99.90;;;;;;5070563;28;20267;-75
2023/07/09 12:25:53;;;;;;;11.27;10.23;;;31.30;99.90;;;;;;5070381;28;20244;-70
2023/07/09 12:28:21;;;;;;;11.13;10.05;;;31.20;99.90;;;;;;5072572;28;20236;-70
2023/07/09 12:30:49;;;;;;;11.05;10.13;;;31.20;99.90;;;;;;5074582;28;20202;-79
2023/07/09 12:33:18;;;;;;;10.50;9.60;;;31.10;99.90;;;;;;5074605;28;20252;-80
2023/07/09 12:35:45;;;;;;;10.82;9.98;;;31.10;99.90;;;;;;5074080;28;20205;-78
2023/07/09 12:38:19;;;;;;;10.27;9.48;;;30.90;99.90;;;;;;5074460;28;20243;-78
2023/07/09 12:40:48;;;;;;;10.23;9.15;;;30.90;99.90;;;;;;5074012;28;20298;-70
2023/07/09 12:43:19;;;;;;;10.48;9.57;;;30.90;99.90;;;;;;5073969;28;20228;-79
2023/07/09 12:45:45;;;;;;;10.32;9.20;;;31.00;99.90;;;;;;5073625;28;20688;-70
2023/07/09 12:48:14;;;;;;;10.40;9.40;;;31.30;99.90;;;;;;5074386;28;20209;-77